createdAt,value
2018-02-27T00:01:10.549Z,1006.62
2018-02-27T00:02:10.543Z,1006.56
2018-02-27T00:03:10.506Z,1006.59
2018-02-27T00:04:10.488Z,1006.58
2018-02-27T00:05:10.469Z,1006.61
2018-02-27T00:06:10.438Z,1006.56
2018-02-27T00:07:10.417Z,1006.54
2018-02-27T00:08:10.395Z,1006.54
2018-02-27T00:09:10.376Z,1006.53
2018-02-27T00:10:10.353Z,1006.52
2018-02-27T00:11:10.327Z,1006.50
2018-02-27T00:12:10.306Z,1006.54
2018-02-27T00:13:10.290Z,1006.50
2018-02-27T00:14:10.263Z,1006.45
2018-02-27T00:15:10.239Z,1006.41
2018-02-27T00:16:10.217Z,1006.43
2018-02-27T00:17:10.199Z,1006.42
2018-02-27T00:18:10.172Z,1006.42
2018-02-27T00:19:10.150Z,1006.37
2018-02-27T00:20:10.128Z,1006.39
2018-02-27T00:21:10.105Z,1006.39
2018-02-27T00:22:10.083Z,1006.33
2018-02-27T00:23:10.060Z,1006.36
2018-02-27T00:24:10.038Z,1006.37
2018-02-27T00:25:10.016Z,1006.35
2018-02-27T00:26:09.993Z,1006.37
2018-02-27T00:27:09.971Z,1006.36
2018-02-27T00:28:09.949Z,1006.38
2018-02-27T00:29:09.938Z,1006.40
2018-02-27T00:30:09.903Z,1006.39
2018-02-27T00:31:09.881Z,1006.37
2018-02-27T00:32:09.859Z,1006.36
2018-02-27T00:33:09.837Z,1006.38
2018-02-27T00:34:09.813Z,1006.40
2018-02-27T00:35:09.791Z,1006.38
2018-02-27T00:36:09.769Z,1006.40
2018-02-27T00:37:09.746Z,1006.38
2018-02-27T00:38:09.723Z,1006.42
2018-02-27T00:39:09.701Z,1006.37
2018-02-27T00:40:09.679Z,1006.37
2018-02-27T00:41:09.656Z,1006.38
2018-02-27T00:42:09.633Z,1006.34
2018-02-27T00:43:09.611Z,1006.36
2018-02-27T00:44:09.588Z,1006.34
2018-02-27T00:45:09.566Z,1006.34
2018-02-27T00:46:09.542Z,1006.32
2018-02-27T00:47:09.521Z,1006.32
2018-02-27T00:48:09.498Z,1006.32
2018-02-27T00:49:09.475Z,1006.32
2018-02-27T00:50:09.452Z,1006.33
2018-02-27T00:51:09.439Z,1006.34
2018-02-27T00:52:09.407Z,1006.37
2018-02-27T00:53:09.402Z,1006.32
2018-02-27T00:54:09.370Z,1006.33
2018-02-27T00:55:09.338Z,1006.32
2018-02-27T00:56:09.334Z,1006.36
2018-02-27T00:57:09.297Z,1006.35
2018-02-27T00:58:09.294Z,1006.38
2018-02-27T00:59:09.259Z,1006.40
2018-02-27T01:00:09.225Z,1006.33
2018-02-27T01:01:09.210Z,1006.37
2018-02-27T01:02:09.180Z,1006.34
2018-02-27T01:03:09.370Z,1006.38
2018-02-27T01:04:09.137Z,1006.34
2018-02-27T01:05:09.112Z,1006.35
2018-02-27T01:06:09.301Z,1006.38
2018-02-27T01:07:09.066Z,1006.34
2018-02-27T01:08:09.043Z,1006.34
2018-02-27T01:09:09.226Z,1006.34
2018-02-27T01:10:08.997Z,1006.31
2018-02-27T01:11:08.975Z,1006.34
2018-02-27T01:12:08.994Z,1006.33
2018-02-27T01:13:08.931Z,1006.35
2018-02-27T01:14:08.908Z,1006.32
2018-02-27T01:15:08.920Z,1006.33
2018-02-27T01:16:08.864Z,1006.35
2018-02-27T01:17:08.839Z,1006.32
2018-02-27T01:18:08.846Z,1006.28
2018-02-27T01:19:08.795Z,1006.27
2018-02-27T01:20:08.771Z,1006.26
2018-02-27T01:21:08.771Z,1006.26
2018-02-27T01:22:08.726Z,1006.21
2018-02-27T01:23:08.702Z,1006.24
2018-02-27T01:24:08.697Z,1006.20
2018-02-27T01:25:08.657Z,1006.19
2018-02-27T01:26:08.634Z,1006.19
2018-02-27T01:27:08.625Z,1006.16
2018-02-27T01:28:08.609Z,1006.16
2018-02-27T01:29:08.568Z,1006.18
2018-02-27T01:30:08.547Z,1006.14
2018-02-27T01:31:08.532Z,1006.16
2018-02-27T01:32:08.499Z,1006.15
2018-02-27T01:33:08.511Z,1006.12
2018-02-27T01:34:08.460Z,1006.13
2018-02-27T01:35:08.431Z,1006.16
2018-02-27T01:36:08.620Z,1006.16
2018-02-27T01:37:08.385Z,1006.14
2018-02-27T01:38:08.361Z,1006.14
2018-02-27T01:39:08.387Z,1006.13
2018-02-27T01:40:08.318Z,1006.16
2018-02-27T01:41:08.295Z,1006.16
2018-02-27T01:42:08.318Z,1006.15
2018-02-27T01:43:08.249Z,1006.15
2018-02-27T01:44:08.226Z,1006.16
2018-02-27T01:45:08.241Z,1006.13
2018-02-27T01:46:08.181Z,1006.14
2018-02-27T01:47:08.157Z,1006.11
2018-02-27T01:48:08.165Z,1006.13
2018-02-27T01:49:08.114Z,1006.10
2018-02-27T01:50:08.089Z,1006.09
2018-02-27T01:51:08.092Z,1006.07
2018-02-27T01:52:08.047Z,1006.01
2018-02-27T01:53:08.022Z,1006.07
2018-02-27T01:54:08.021Z,1006.09
2018-02-27T01:55:07.975Z,1006.04
2018-02-27T01:56:07.953Z,1006.04
2018-02-27T01:57:07.951Z,1006.02
2018-02-27T01:58:07.906Z,1006.05
2018-02-27T01:59:07.884Z,1006.03
2018-02-27T02:00:07.872Z,1006.02
2018-02-27T02:01:07.839Z,1006.04
2018-02-27T02:02:07.816Z,1006.02
2018-02-27T02:03:07.798Z,1005.99
2018-02-27T02:04:07.771Z,1006.01
2018-02-27T02:05:07.748Z,1005.98
2018-02-27T02:06:07.725Z,1005.99
2018-02-27T02:07:07.702Z,1005.96
2018-02-27T02:08:07.679Z,1005.95
2018-02-27T02:09:07.657Z,1005.92
2018-02-27T02:10:07.636Z,1005.95
2018-02-27T02:11:07.610Z,1005.94
2018-02-27T02:12:07.588Z,1005.92
2018-02-27T02:13:07.565Z,1005.89
2018-02-27T02:14:07.542Z,1005.90
2018-02-27T02:15:07.519Z,1005.90
2018-02-27T02:16:07.495Z,1005.92
2018-02-27T02:17:07.473Z,1005.91
2018-02-27T02:18:07.450Z,1005.90
2018-02-27T02:19:07.427Z,1005.89
2018-02-27T02:20:07.403Z,1005.89
2018-02-27T02:21:07.385Z,1005.88
2018-02-27T02:22:07.357Z,1005.86
2018-02-27T02:23:07.535Z,1005.85
2018-02-27T02:24:07.312Z,1005.86
2018-02-27T02:25:07.289Z,1005.84
2018-02-27T02:26:07.266Z,1005.81
2018-02-27T02:27:07.243Z,1005.81
2018-02-27T02:28:07.221Z,1005.82
2018-02-27T02:29:07.197Z,1005.83
2018-02-27T02:30:07.175Z,1005.84
2018-02-27T02:31:07.152Z,1005.78
2018-02-27T02:32:07.135Z,1005.83
2018-02-27T02:33:07.104Z,1005.77
2018-02-27T02:34:07.081Z,1005.83
2018-02-27T02:35:07.065Z,1005.81
2018-02-27T02:36:07.038Z,1005.80
2018-02-27T02:37:07.017Z,1005.75
2018-02-27T02:38:07.051Z,1005.80
2018-02-27T02:39:06.971Z,1005.75
2018-02-27T02:40:06.945Z,1005.77
2018-02-27T02:41:06.935Z,1005.74
2018-02-27T02:42:06.904Z,1005.72
2018-02-27T02:43:06.872Z,1005.72
2018-02-27T02:44:06.868Z,1005.71
2018-02-27T02:45:06.832Z,1005.72
2018-02-27T02:46:06.815Z,1005.72
2018-02-27T02:47:06.794Z,1005.78
2018-02-27T02:48:06.757Z,1005.73
2018-02-27T02:49:06.790Z,1005.74
2018-02-27T02:50:06.719Z,1005.74
2018-02-27T02:51:06.687Z,1005.82
2018-02-27T02:52:06.722Z,1005.74
2018-02-27T02:53:06.646Z,1005.73
2018-02-27T02:54:06.616Z,1005.76
2018-02-27T02:55:06.643Z,1005.73
2018-02-27T02:56:06.571Z,1005.71
2018-02-27T02:57:06.547Z,1005.68
2018-02-27T02:58:06.732Z,1005.72
2018-02-27T02:59:06.501Z,1005.71
2018-02-27T03:00:06.477Z,1005.67
2018-02-27T03:01:06.511Z,1005.71
2018-02-27T03:02:06.429Z,1005.67
2018-02-27T03:03:06.455Z,1005.66
2018-02-27T03:04:06.383Z,1005.66
2018-02-27T03:05:06.361Z,1005.65
2018-02-27T03:06:06.377Z,1005.66
2018-02-27T03:07:06.313Z,1005.65
2018-02-27T03:08:06.291Z,1005.59
2018-02-27T03:09:06.305Z,1005.59
2018-02-27T03:10:06.243Z,1005.59
2018-02-27T03:11:06.220Z,1005.60
2018-02-27T03:12:06.234Z,1005.63
2018-02-27T03:13:06.174Z,1005.59
2018-02-27T03:14:06.153Z,1005.63
2018-02-27T03:15:06.156Z,1005.55
2018-02-27T03:16:06.103Z,1005.56
2018-02-27T03:17:06.080Z,1005.52
2018-02-27T03:18:06.084Z,1005.53
2018-02-27T03:19:06.032Z,1005.53
2018-02-27T03:20:06.009Z,1005.56
2018-02-27T03:21:06.010Z,1005.48
2018-02-27T03:22:05.962Z,1005.54
2018-02-27T03:23:05.939Z,1005.55
2018-02-27T03:24:05.933Z,1005.61
2018-02-27T03:25:05.892Z,1005.53
2018-02-27T03:26:05.868Z,1005.56
2018-02-27T03:27:05.862Z,1005.54
2018-02-27T03:28:05.821Z,1005.53
2018-02-27T03:29:05.807Z,1005.53
2018-02-27T03:30:05.789Z,1005.56
2018-02-27T03:31:05.767Z,1005.50
2018-02-27T03:32:05.732Z,1005.49
2018-02-27T03:33:05.713Z,1005.53
2018-02-27T03:34:05.697Z,1005.53
2018-02-27T03:35:05.660Z,1005.51
2018-02-27T03:36:05.642Z,1005.50
2018-02-27T03:37:05.624Z,1005.51
2018-02-27T03:38:05.586Z,1005.56
2018-02-27T03:39:05.570Z,1005.53
2018-02-27T03:40:05.549Z,1005.52
2018-02-27T03:41:05.514Z,1005.55
2018-02-27T03:42:05.490Z,1005.55
2018-02-27T03:43:05.480Z,1005.50
2018-02-27T03:44:05.442Z,1005.50
2018-02-27T03:45:05.456Z,1005.53
2018-02-27T03:46:05.406Z,1005.55
2018-02-27T03:47:05.370Z,1005.52
2018-02-27T03:48:05.392Z,1005.54
2018-02-27T03:49:05.327Z,1005.53
2018-02-27T03:50:05.300Z,1005.49
2018-02-27T03:51:05.488Z,1005.48
2018-02-27T03:52:05.253Z,1005.45
2018-02-27T03:53:05.228Z,1005.46
2018-02-27T03:54:05.414Z,1005.40
2018-02-27T03:55:05.181Z,1005.43
2018-02-27T03:56:05.156Z,1005.42
2018-02-27T03:57:05.185Z,1005.44
2018-02-27T03:58:05.108Z,1005.43
2018-02-27T03:59:05.085Z,1005.50
2018-02-27T04:00:05.265Z,1005.46
2018-02-27T04:01:05.042Z,1005.46
2018-02-27T04:02:05.058Z,1005.44
2018-02-27T04:03:04.990Z,1005.48
2018-02-27T04:04:04.966Z,1005.49
2018-02-27T04:05:04.988Z,1005.52
2018-02-27T04:06:04.918Z,1005.44
2018-02-27T04:07:04.894Z,1005.45
2018-02-27T04:08:04.914Z,1005.43
2018-02-27T04:09:04.847Z,1005.40
2018-02-27T04:10:04.822Z,1005.41
2018-02-27T04:11:04.838Z,1005.43
2018-02-27T04:12:04.774Z,1005.42
2018-02-27T04:13:04.751Z,1005.42
2018-02-27T04:14:04.763Z,1005.38
2018-02-27T04:15:04.703Z,1005.37
2018-02-27T04:16:04.678Z,1005.42
2018-02-27T04:17:04.687Z,1005.38
2018-02-27T04:18:04.630Z,1005.38
2018-02-27T04:19:04.607Z,1005.36
2018-02-27T04:20:04.612Z,1005.41
2018-02-27T04:21:04.559Z,1005.41
2018-02-27T04:22:04.535Z,1005.40
2018-02-27T04:23:04.541Z,1005.36
2018-02-27T04:24:04.488Z,1005.41
2018-02-27T04:25:04.465Z,1005.41
2018-02-27T04:26:04.466Z,1005.44
2018-02-27T04:27:04.415Z,1005.45
2018-02-27T04:28:04.391Z,1005.39
2018-02-27T04:29:04.394Z,1005.42
2018-02-27T04:30:04.343Z,1005.45
2018-02-27T04:31:04.319Z,1005.46
2018-02-27T04:32:04.319Z,1005.45
2018-02-27T04:33:04.271Z,1005.47
2018-02-27T04:34:04.247Z,1005.48
2018-02-27T04:35:04.243Z,1005.45
2018-02-27T04:36:04.199Z,1005.51
2018-02-27T04:37:04.175Z,1005.48
2018-02-27T04:38:04.171Z,1005.48
2018-02-27T04:39:04.127Z,1005.48
2018-02-27T04:40:04.103Z,1005.48
2018-02-27T04:41:04.100Z,1005.46
2018-02-27T04:42:04.055Z,1005.50
2018-02-27T04:43:04.031Z,1005.51
2018-02-27T04:44:04.026Z,1005.55
2018-02-27T04:45:03.984Z,1005.54
2018-02-27T04:46:03.958Z,1005.54
2018-02-27T04:47:03.951Z,1005.55
2018-02-27T04:48:03.911Z,1005.58
2018-02-27T04:49:03.888Z,1005.58
2018-02-27T04:50:03.876Z,1005.59
2018-02-27T04:51:03.839Z,1005.58
2018-02-27T04:52:03.818Z,1005.61
2018-02-27T04:53:03.802Z,1005.59
2018-02-27T04:54:03.768Z,1005.59
2018-02-27T04:55:03.744Z,1005.61
2018-02-27T04:56:03.744Z,1005.58
2018-02-27T04:57:03.697Z,1005.62
2018-02-27T04:58:03.676Z,1005.60
2018-02-27T04:59:03.654Z,1005.62
2018-02-27T05:00:03.627Z,1005.62
2018-02-27T05:01:03.602Z,1005.58
2018-02-27T05:02:03.577Z,1005.60
2018-02-27T05:03:03.556Z,1005.59
2018-02-27T05:04:03.529Z,1005.62
2018-02-27T05:05:03.506Z,1005.60
2018-02-27T05:06:03.485Z,1005.62
2018-02-27T05:07:03.458Z,1005.60
2018-02-27T05:08:03.433Z,1005.59
2018-02-27T05:09:03.412Z,1005.62
2018-02-27T05:10:03.385Z,1005.59
2018-02-27T05:11:03.362Z,1005.60
2018-02-27T05:12:03.339Z,1005.64
2018-02-27T05:13:03.314Z,1005.61
2018-02-27T05:14:03.290Z,1005.62
2018-02-27T05:15:03.267Z,1005.58
2018-02-27T05:16:03.242Z,1005.58
2018-02-27T05:17:03.220Z,1005.57
2018-02-27T05:18:03.195Z,1005.56
2018-02-27T05:19:03.192Z,1005.61
2018-02-27T05:20:03.147Z,1005.60
2018-02-27T05:21:03.123Z,1005.59
2018-02-27T05:22:03.115Z,1005.58
2018-02-27T05:23:03.075Z,1005.57
2018-02-27T05:24:03.051Z,1005.57
2018-02-27T05:25:03.042Z,1005.59
2018-02-27T05:26:03.003Z,1005.59
2018-02-27T05:27:02.979Z,1005.59
2018-02-27T05:28:02.972Z,1005.60
2018-02-27T05:29:02.982Z,1005.57
2018-02-27T05:30:02.907Z,1005.57
2018-02-27T05:31:02.896Z,1005.57
2018-02-27T05:32:02.860Z,1005.56
2018-02-27T05:33:02.839Z,1005.55
2018-02-27T05:34:02.826Z,1005.56
2018-02-27T05:35:02.789Z,1005.54
2018-02-27T05:36:02.764Z,1005.57
2018-02-27T05:37:02.748Z,1005.48
2018-02-27T05:38:02.715Z,1005.51
2018-02-27T05:39:02.709Z,1005.47
2018-02-27T05:40:02.675Z,1005.52
2018-02-27T05:41:02.650Z,1005.54
2018-02-27T05:42:02.644Z,1005.50
2018-02-27T05:43:02.600Z,1005.52
2018-02-27T05:44:02.591Z,1005.52
2018-02-27T05:45:02.570Z,1005.54
2018-02-27T05:46:02.525Z,1005.53
2018-02-27T05:47:02.537Z,1005.54
2018-02-27T05:48:02.491Z,1005.49
2018-02-27T05:49:02.509Z,1005.50
2018-02-27T05:50:02.466Z,1005.53
2018-02-27T05:51:02.412Z,1005.51
2018-02-27T05:52:02.408Z,1005.52
2018-02-27T05:53:02.392Z,1005.53
2018-02-27T05:54:02.347Z,1005.50
2018-02-27T05:55:02.555Z,1005.53
2018-02-27T05:56:02.301Z,1005.58
2018-02-27T05:57:02.263Z,1005.55
2018-02-27T05:58:02.277Z,1005.55
2018-02-27T05:59:02.214Z,1005.59
2018-02-27T06:00:02.192Z,1005.56
2018-02-27T06:01:02.168Z,1005.65
2018-02-27T06:02:02.142Z,1005.63
2018-02-27T06:03:02.120Z,1005.62
2018-02-27T06:04:02.095Z,1005.66
2018-02-27T06:05:02.074Z,1005.65
2018-02-27T06:06:02.046Z,1005.68
2018-02-27T06:07:02.022Z,1005.68
2018-02-27T06:08:01.999Z,1005.70
2018-02-27T06:09:01.975Z,1005.66
2018-02-27T06:10:01.953Z,1005.67
2018-02-27T06:11:01.926Z,1005.67
2018-02-27T06:12:01.906Z,1005.63
2018-02-27T06:13:01.902Z,1005.64
2018-02-27T06:14:01.854Z,1005.64
2018-02-27T06:15:01.831Z,1005.64
2018-02-27T06:16:01.814Z,1005.66
2018-02-27T06:17:01.783Z,1005.63
2018-02-27T06:18:01.758Z,1005.65
2018-02-27T06:19:01.739Z,1005.61
2018-02-27T06:20:01.712Z,1005.65
2018-02-27T06:21:01.686Z,1005.68
2018-02-27T06:22:01.661Z,1005.68
2018-02-27T06:23:01.649Z,1005.65
2018-02-27T06:24:01.613Z,1005.67
2018-02-27T06:25:01.652Z,1005.65
2018-02-27T06:26:01.568Z,1005.67
2018-02-27T06:27:01.544Z,1005.65
2018-02-27T06:28:01.516Z,1005.65
2018-02-27T06:29:01.492Z,1005.68
2018-02-27T06:30:01.467Z,1005.63
2018-02-27T06:31:01.458Z,1005.62
2018-02-27T06:32:01.420Z,1005.65
2018-02-27T06:33:01.395Z,1005.62
2018-02-27T06:34:01.370Z,1005.63
2018-02-27T06:35:01.347Z,1005.62
2018-02-27T06:36:01.328Z,1005.64
2018-02-27T06:37:01.299Z,1005.64
2018-02-27T06:38:01.274Z,1005.66
2018-02-27T06:39:01.250Z,1005.65
2018-02-27T06:40:01.227Z,1005.65
2018-02-27T06:41:01.202Z,1005.65
2018-02-27T06:42:01.177Z,1005.65
2018-02-27T06:43:01.153Z,1005.63
2018-02-27T06:44:01.135Z,1005.66
2018-02-27T06:45:01.106Z,1005.66
2018-02-27T06:46:01.081Z,1005.62
2018-02-27T06:47:01.058Z,1005.62
2018-02-27T06:48:01.033Z,1005.59
2018-02-27T06:49:01.011Z,1005.60
2018-02-27T06:50:00.985Z,1005.59
2018-02-27T06:51:00.961Z,1005.58
2018-02-27T06:52:00.939Z,1005.58
2018-02-27T06:53:00.913Z,1005.54
2018-02-27T06:54:00.895Z,1005.58
2018-02-27T06:55:00.865Z,1005.58
2018-02-27T06:56:00.843Z,1005.59
2018-02-27T06:57:00.817Z,1005.55
2018-02-27T06:58:00.795Z,1005.53
2018-02-27T06:59:00.769Z,1005.58
2018-02-27T07:00:00.745Z,1005.55
2018-02-27T07:01:00.722Z,1005.53
2018-02-27T07:02:00.697Z,1005.54
2018-02-27T07:03:00.674Z,1005.55
2018-02-27T07:04:00.684Z,1005.54
2018-02-27T07:05:00.626Z,1005.51
2018-02-27T07:06:00.601Z,1005.55
2018-02-27T07:07:00.590Z,1005.53
2018-02-27T07:08:00.554Z,1005.54
2018-02-27T07:09:00.530Z,1005.50
2018-02-27T07:10:00.506Z,1005.50
2018-02-27T07:11:00.482Z,1005.49
2018-02-27T07:12:00.461Z,1005.50
2018-02-27T07:13:00.434Z,1005.50
2018-02-27T07:14:00.411Z,1005.52
2018-02-27T07:15:00.389Z,1005.51
2018-02-27T07:16:00.363Z,1005.47
2018-02-27T07:17:00.340Z,1005.43
2018-02-27T07:18:00.317Z,1005.47
2018-02-27T07:19:00.294Z,1005.47
2018-02-27T07:20:00.270Z,1005.42
2018-02-27T07:21:00.246Z,1005.46
2018-02-27T07:22:00.221Z,1005.42
2018-02-27T07:23:00.199Z,1005.43
2018-02-27T07:24:00.179Z,1005.41
2018-02-27T07:25:00.151Z,1005.44
2018-02-27T07:26:00.129Z,1005.43
2018-02-27T07:27:00.105Z,1005.46
2018-02-27T07:28:00.082Z,1005.39
2018-02-27T07:29:00.058Z,1005.42
2018-02-27T07:30:00.034Z,1005.43
2018-02-27T07:31:00.013Z,1005.42
2018-02-27T07:31:59.987Z,1005.41
2018-02-27T07:32:59.965Z,1005.36
2018-02-27T07:33:59.942Z,1005.41
2018-02-27T07:34:59.917Z,1005.38
2018-02-27T07:35:59.894Z,1005.36
2018-02-27T07:36:59.875Z,1005.38
2018-02-27T07:37:59.851Z,1005.39
2018-02-27T07:38:59.825Z,1005.37
2018-02-27T07:39:59.803Z,1005.39
2018-02-27T07:40:59.780Z,1005.40
2018-02-27T07:41:59.755Z,1005.40
2018-02-27T07:42:59.733Z,1005.40
2018-02-27T07:43:59.711Z,1005.38
2018-02-27T07:44:59.689Z,1005.41
2018-02-27T07:45:59.666Z,1005.42
2018-02-27T07:46:59.642Z,1005.42
2018-02-27T07:47:59.707Z,1005.39
2018-02-27T07:48:59.597Z,1005.38
2018-02-27T07:49:59.574Z,1005.37
2018-02-27T07:50:59.554Z,1005.41
2018-02-27T07:51:59.530Z,1005.44
2018-02-27T07:52:59.510Z,1005.43
2018-02-27T07:53:59.689Z,1005.45
2018-02-27T07:54:59.465Z,1005.41
2018-02-27T07:55:59.447Z,1005.41
2018-02-27T07:56:59.505Z,1005.43
2018-02-27T07:57:59.400Z,1005.45
2018-02-27T07:58:59.380Z,1005.49
2018-02-27T07:59:59.448Z,1005.44
2018-02-27T08:00:59.341Z,1005.49
2018-02-27T08:02:59.303Z,1005.50
2018-02-27T08:03:59.292Z,1005.46
2018-02-27T08:04:59.470Z,1005.49
2018-02-27T08:05:59.248Z,1005.44
2018-02-27T08:06:59.232Z,1005.48
2018-02-27T08:07:59.264Z,1005.50
2018-02-27T08:08:59.200Z,1005.59
2018-02-27T08:09:59.183Z,1005.58
2018-02-27T08:10:59.167Z,1005.60
2018-02-27T08:11:59.153Z,1005.63
2018-02-27T08:12:59.141Z,1005.66
2018-02-27T08:13:59.124Z,1005.66
2018-02-27T08:14:59.111Z,1005.65
2018-02-27T08:15:59.094Z,1005.61
2018-02-27T08:16:59.082Z,1005.60
2018-02-27T08:17:59.067Z,1005.63
2018-02-27T08:18:59.059Z,1005.64
2018-02-27T08:19:59.037Z,1005.64
2018-02-27T08:20:59.024Z,1005.66
2018-02-27T08:21:59.086Z,1005.62
2018-02-27T08:22:58.996Z,1005.60
2018-02-27T08:23:58.984Z,1005.58
2018-02-27T08:24:59.020Z,1005.59
2018-02-27T08:25:58.960Z,1005.57
2018-02-27T08:26:58.944Z,1005.63
2018-02-27T08:27:58.963Z,1005.65
2018-02-27T08:28:58.921Z,1005.60
2018-02-27T08:29:58.906Z,1005.61
2018-02-27T08:30:58.895Z,1005.65
2018-02-27T08:31:58.886Z,1005.61
2018-02-27T08:32:58.876Z,1005.63
2018-02-27T08:33:58.858Z,1005.63
2018-02-27T08:34:58.846Z,1005.65
2018-02-27T08:35:58.837Z,1005.66
2018-02-27T08:36:58.823Z,1005.64
2018-02-27T08:37:58.814Z,1005.63
2018-02-27T08:38:58.801Z,1005.65
2018-02-27T08:39:58.791Z,1005.63
2018-02-27T08:40:58.778Z,1005.66
2018-02-27T08:41:58.971Z,1005.65
2018-02-27T08:42:58.759Z,1005.62
2018-02-27T08:43:58.748Z,1005.62
2018-02-27T08:45:58.726Z,1005.59
2018-02-27T08:46:58.716Z,1005.58
2018-02-27T08:47:58.706Z,1005.56
2018-02-27T08:48:58.693Z,1005.58
2018-02-27T08:49:58.682Z,1005.57
2018-02-27T08:50:58.713Z,1005.61
2018-02-27T08:51:58.661Z,1005.54
2018-02-27T08:52:58.651Z,1005.64
2018-02-27T08:53:58.642Z,1005.61
2018-02-27T08:54:58.630Z,1005.59
2018-02-27T08:55:58.624Z,1005.55
2018-02-27T08:56:58.619Z,1005.58
2018-02-27T08:57:58.601Z,1005.61
2018-02-27T08:58:58.795Z,1005.55
2018-02-27T08:59:58.580Z,1005.60
2018-02-27T09:00:58.570Z,1005.59
2018-02-27T09:01:58.560Z,1005.60
2018-02-27T09:02:58.550Z,1005.59
2018-02-27T09:03:58.544Z,1005.64
2018-02-27T09:04:58.531Z,1005.60
2018-02-27T09:05:58.523Z,1005.57
2018-02-27T09:06:58.512Z,1005.55
2018-02-27T09:07:58.523Z,1005.51
2018-02-27T09:08:58.495Z,1005.52
2018-02-27T09:09:58.488Z,1005.56
2018-02-27T09:11:58.467Z,1005.49
2018-02-27T09:12:58.459Z,1005.48
2018-02-27T09:13:58.475Z,1005.52
2018-02-27T09:14:58.439Z,1005.45
2018-02-27T09:15:58.431Z,1005.42
2018-02-27T09:16:58.426Z,1005.46
2018-02-27T09:17:58.412Z,1005.43
2018-02-27T09:18:58.405Z,1005.46
2018-02-27T09:19:58.394Z,1005.48
2018-02-27T09:20:58.388Z,1005.40
2018-02-27T09:21:58.375Z,1005.46
2018-02-27T09:22:58.368Z,1005.35
2018-02-27T09:23:58.360Z,1005.41
2018-02-27T09:24:58.551Z,1005.39
2018-02-27T09:25:58.338Z,1005.35
2018-02-27T09:26:58.335Z,1005.34
2018-02-27T09:27:58.362Z,1005.32
2018-02-27T09:28:58.315Z,1005.33
2018-02-27T09:29:58.302Z,1005.31
2018-02-27T09:30:58.294Z,1005.32
2018-02-27T09:31:58.285Z,1005.32
2018-02-27T09:32:58.276Z,1005.29
2018-02-27T09:33:58.267Z,1005.31
2018-02-27T09:34:58.264Z,1005.29
2018-02-27T09:35:58.250Z,1005.25
2018-02-27T09:36:58.245Z,1005.27
2018-02-27T09:37:58.234Z,1005.29
2018-02-27T09:38:58.310Z,1005.19
2018-02-27T09:39:58.217Z,1005.27
2018-02-27T09:40:58.205Z,1005.29
2018-02-27T09:41:58.398Z,1005.31
2018-02-27T09:42:58.186Z,1005.23
2018-02-27T09:43:58.178Z,1005.17
2018-02-27T09:44:58.212Z,1005.25
2018-02-27T09:45:58.162Z,1005.19
2018-02-27T09:46:58.152Z,1005.24
2018-02-27T09:47:58.192Z,1005.24
2018-02-27T09:48:58.134Z,1005.20
2018-02-27T09:49:58.123Z,1005.16
2018-02-27T09:50:58.149Z,1005.19
2018-02-27T09:51:58.105Z,1005.18
2018-02-27T09:52:58.096Z,1005.12
2018-02-27T09:53:58.087Z,1005.11
2018-02-27T09:54:58.079Z,1005.14
2018-02-27T09:55:58.069Z,1005.16
2018-02-27T09:56:58.065Z,1005.12
2018-02-27T09:57:58.051Z,1005.15
2018-02-27T09:58:58.247Z,1005.11
2018-02-27T09:59:58.035Z,1005.10
2018-02-27T10:00:58.031Z,1005.14
2018-02-27T10:01:58.066Z,1005.06
2018-02-27T10:02:58.009Z,1005.08
2018-02-27T10:03:58.001Z,1005.10
2018-02-27T10:04:57.993Z,1005.16
2018-02-27T10:05:57.985Z,1005.08
2018-02-27T10:06:57.977Z,1005.12
2018-02-27T10:07:57.968Z,1005.10
2018-02-27T10:08:57.961Z,1005.12
2018-02-27T10:09:57.958Z,1005.10
2018-02-27T10:10:57.945Z,1005.08
2018-02-27T10:11:57.942Z,1005.03
2018-02-27T10:12:57.988Z,1005.00
2018-02-27T10:13:57.922Z,1005.04
2018-02-27T10:14:57.915Z,1004.97
2018-02-27T10:15:57.935Z,1005.04
2018-02-27T10:16:57.900Z,1004.85
2018-02-27T10:17:57.892Z,1004.97
2018-02-27T10:18:57.887Z,1005.00
2018-02-27T10:19:57.878Z,1004.98
2018-02-27T10:20:57.871Z,1004.89
2018-02-27T10:21:57.863Z,1004.90
2018-02-27T10:22:57.856Z,1004.92
2018-02-27T10:23:57.850Z,1004.93
2018-02-27T10:24:57.844Z,1004.92
2018-02-27T10:25:57.835Z,1004.93
2018-02-27T10:26:57.874Z,1004.89
2018-02-27T10:27:57.823Z,1004.92
2018-02-27T10:28:57.818Z,1004.93
2018-02-27T10:29:57.818Z,1004.83
2018-02-27T10:30:57.800Z,1004.92
2018-02-27T10:31:57.792Z,1004.88
2018-02-27T10:32:57.786Z,1004.90
2018-02-27T10:33:57.783Z,1004.98
2018-02-27T10:34:57.771Z,1004.93
2018-02-27T10:35:57.777Z,1004.92
2018-02-27T10:36:57.759Z,1004.86
2018-02-27T10:37:57.753Z,1004.92
2018-02-27T10:38:57.746Z,1004.89
2018-02-27T10:39:57.737Z,1004.91
2018-02-27T10:40:57.936Z,1004.87
2018-02-27T10:41:57.723Z,1004.83
2018-02-27T10:42:57.715Z,1004.83
2018-02-27T10:43:57.744Z,1004.78
2018-02-27T10:44:57.701Z,1004.86
2018-02-27T10:45:57.696Z,1004.79
2018-02-27T10:46:57.695Z,1004.85
2018-02-27T10:47:57.678Z,1004.85
2018-02-27T10:48:57.673Z,1004.82
2018-02-27T10:49:57.680Z,1004.81
2018-02-27T10:50:57.653Z,1004.88
2018-02-27T10:51:57.645Z,1004.81
2018-02-27T10:52:57.641Z,1004.79
2018-02-27T10:53:57.628Z,1004.83
2018-02-27T10:54:57.840Z,1004.78
2018-02-27T10:55:57.613Z,1004.76
2018-02-27T10:56:57.607Z,1004.75
2018-02-27T10:57:57.648Z,1004.68
2018-02-27T10:58:57.588Z,1004.70
2018-02-27T10:59:57.580Z,1004.79
2018-02-27T11:00:57.620Z,1004.81
2018-02-27T11:01:57.601Z,1004.75
2018-02-27T11:02:57.557Z,1004.71
2018-02-27T11:03:57.550Z,1004.72
2018-02-27T11:04:57.542Z,1004.68
2018-02-27T11:05:57.533Z,1004.64
2018-02-27T11:06:57.526Z,1004.67
2018-02-27T11:07:57.518Z,1004.67
2018-02-27T11:08:57.510Z,1004.72
2018-02-27T11:09:57.705Z,1004.71
2018-02-27T11:10:57.494Z,1004.58
2018-02-27T11:11:57.487Z,1004.60
2018-02-27T11:12:57.572Z,1004.60
2018-02-27T11:13:57.482Z,1004.51
2018-02-27T11:14:57.470Z,1004.58
2018-02-27T11:15:57.494Z,1004.59
2018-02-27T11:16:57.450Z,1004.58
2018-02-27T11:17:57.438Z,1004.60
2018-02-27T11:18:57.434Z,1004.57
2018-02-27T11:19:57.468Z,1004.62
2018-02-27T11:20:57.415Z,1004.59
2018-02-27T11:21:57.408Z,1004.64
2018-02-27T11:22:57.400Z,1004.59
2018-02-27T11:23:57.592Z,1004.58
2018-02-27T11:24:57.385Z,1004.55
2018-02-27T11:25:57.378Z,1004.49
2018-02-27T11:27:57.355Z,1004.44
2018-02-27T11:28:57.343Z,1004.41
2018-02-27T11:29:57.378Z,1004.46
2018-02-27T11:30:57.326Z,1004.43
2018-02-27T11:31:57.315Z,1004.37
2018-02-27T11:32:57.310Z,1004.33
2018-02-27T11:33:57.300Z,1004.25
2018-02-27T11:34:57.287Z,1004.26
2018-02-27T11:35:57.279Z,1004.28
2018-02-27T11:36:57.269Z,1004.24
2018-02-27T11:37:57.260Z,1004.21
2018-02-27T11:38:57.249Z,1004.21
2018-02-27T11:39:57.240Z,1004.24
2018-02-27T11:40:57.434Z,1004.22
2018-02-27T11:41:57.220Z,1004.23
2018-02-27T11:42:57.211Z,1004.18
2018-02-27T11:43:57.406Z,1004.23
2018-02-27T11:44:57.191Z,1004.25
2018-02-27T11:45:57.181Z,1004.21
2018-02-27T11:46:57.193Z,1004.23
2018-02-27T11:47:57.162Z,1004.18
2018-02-27T11:48:57.154Z,1004.22
2018-02-27T11:49:57.142Z,1004.19
2018-02-27T11:50:57.133Z,1004.19
2018-02-27T11:51:57.125Z,1004.21
2018-02-27T11:52:57.114Z,1004.19
2018-02-27T11:53:57.132Z,1004.21
2018-02-27T11:54:57.297Z,1004.14
2018-02-27T11:55:57.084Z,1004.12
2018-02-27T11:56:57.076Z,1004.22
2018-02-27T11:57:57.100Z,1004.23
2018-02-27T11:58:57.053Z,1004.22
2018-02-27T11:59:57.043Z,1004.16
2018-02-27T12:00:57.056Z,1004.20
2018-02-27T12:01:57.027Z,1004.21
2018-02-27T12:02:57.065Z,1004.16
2018-02-27T12:03:57.004Z,1004.16
2018-02-27T12:04:56.993Z,1004.14
2018-02-27T12:05:57.004Z,1004.12
2018-02-27T12:06:56.973Z,1004.15
2018-02-27T12:07:56.963Z,1004.13
2018-02-27T12:08:56.954Z,1004.08
2018-02-27T12:09:56.944Z,1004.09